createdAt,value
2022-07-29T00:02:25.182Z,4.32
2022-07-29T00:04:51.561Z,8.95
2022-07-29T00:07:17.916Z,8.52
2022-07-29T00:09:51.696Z,9.73
2022-07-29T00:12:26.561Z,4.35
2022-07-29T00:14:57.312Z,2.53
2022-07-29T00:17:24.883Z,7.78
2022-07-29T00:19:51.379Z,9.52
2022-07-29T00:22:17.777Z,5.82
2022-07-29T00:24:44.130Z,6.78
2022-07-29T00:27:10.545Z,5.30
2022-07-29T00:29:36.939Z,6.53
2022-07-29T00:32:03.873Z,5.47
2022-07-29T00:34:30.808Z,12.23
2022-07-29T00:36:57.862Z,3.75
2022-07-29T00:39:24.386Z,4.85
2022-07-29T00:41:51.279Z,6.00
2022-07-29T00:44:17.752Z,4.63
2022-07-29T00:46:44.363Z,6.80
2022-07-29T00:49:10.924Z,4.40
2022-07-29T00:51:38.214Z,5.85
2022-07-29T00:54:06.005Z,3.78
2022-07-29T00:56:33.550Z,4.47
2022-07-29T00:59:00.783Z,8.95
2022-07-29T01:01:28.057Z,2.88
2022-07-29T01:03:54.531Z,7.07
2022-07-29T01:06:21.229Z,4.45
2022-07-29T01:08:49.015Z,3.67
2022-07-29T01:11:16.898Z,12.70
2022-07-29T01:13:45.258Z,3.65
2022-07-29T01:16:18.963Z,6.50
2022-07-29T01:18:48.078Z,6.75
2022-07-29T01:21:49.529Z,9.43
2022-07-29T01:24:25.088Z,6.82
2022-07-29T01:27:19.465Z,6.45
2022-07-29T01:29:54.936Z,6.60
2022-07-29T01:32:28.833Z,3.47
2022-07-29T01:35:05.312Z,4.13
2022-07-29T01:38:02.104Z,2.13
2022-07-29T01:40:35.294Z,3.85
2022-07-29T01:43:10.142Z,2.75
2022-07-29T01:48:39.879Z,2.10
2022-07-29T01:51:13.747Z,2.83
2022-07-29T01:53:48.688Z,2.55
2022-07-29T01:56:17.806Z,4.63
2022-07-29T01:58:46.375Z,4.22
2022-07-29T02:01:14.304Z,3.85
2022-07-29T02:03:45.658Z,3.95
2022-07-29T02:06:13.335Z,5.97
2022-07-29T02:08:40.544Z,3.45
2022-07-29T02:11:09.211Z,4.45
2022-07-29T02:13:37.758Z,4.28
2022-07-29T02:16:07.511Z,3.42
2022-07-29T02:18:36.767Z,5.65
2022-07-29T02:21:04.304Z,8.88
2022-07-29T02:23:31.952Z,7.60
2022-07-29T02:26:20.244Z,5.95
2022-07-29T02:28:48.200Z,4.63
2022-07-29T02:31:15.346Z,8.25
2022-07-29T02:33:42.708Z,5.90
2022-07-29T02:36:09.827Z,4.35
2022-07-29T02:38:37.071Z,5.38
2022-07-29T02:41:08.734Z,4.25
2022-07-29T02:43:36.609Z,5.07
2022-07-29T02:46:06.695Z,3.53
2022-07-29T02:48:59.189Z,3.97
2022-07-29T02:51:44.006Z,4.00
2022-07-29T02:54:15.573Z,4.53
2022-07-29T02:56:45.191Z,4.22
2022-07-29T02:59:14.875Z,12.30
2022-07-29T03:01:43.752Z,6.32
2022-07-29T03:04:12.550Z,5.85
2022-07-29T03:06:41.149Z,6.35
2022-07-29T03:09:12.966Z,5.82
2022-07-29T03:11:46.275Z,6.85
2022-07-29T03:14:18.458Z,3.58
2022-07-29T03:16:45.859Z,6.60
2022-07-29T03:19:12.349Z,3.55
2022-07-29T03:21:38.717Z,11.43
2022-07-29T03:24:10.098Z,3.28
2022-07-29T03:26:37.036Z,3.85
2022-07-29T03:29:03.383Z,7.03
2022-07-29T03:31:29.808Z,7.40
2022-07-29T03:33:56.238Z,4.90
2022-07-29T03:36:22.562Z,6.05
2022-07-29T03:38:50.031Z,3.05
2022-07-29T03:41:18.120Z,7.07
2022-07-29T03:43:50.672Z,5.47
2022-07-29T03:46:18.684Z,4.68
2022-07-29T03:48:51.490Z,3.38
2022-07-29T03:51:17.946Z,7.40
2022-07-29T03:53:45.382Z,5.07
2022-07-29T03:56:17.770Z,6.72
2022-07-29T03:58:45.208Z,3.78
2022-07-29T04:01:12.631Z,6.28
2022-07-29T04:03:40.079Z,2.60
2022-07-29T04:06:07.939Z,4.60
2022-07-29T04:08:35.397Z,5.65
2022-07-29T04:11:02.603Z,8.27
2022-07-29T04:13:29.339Z,4.30
2022-07-29T04:15:55.995Z,5.03
2022-07-29T04:18:22.372Z,5.93
2022-07-29T04:20:48.778Z,5.97
2022-07-29T04:23:15.212Z,6.20
2022-07-29T04:25:42.167Z,2.95
2022-07-29T04:28:10.232Z,3.90
2022-07-29T04:30:37.849Z,7.40
2022-07-29T04:33:06.843Z,3.58
2022-07-29T04:35:45.814Z,6.88
2022-07-29T04:38:18.956Z,3.22
2022-07-29T04:40:45.384Z,4.95
2022-07-29T04:43:14.263Z,4.43
2022-07-29T04:45:42.081Z,5.47
2022-07-29T04:48:08.504Z,4.05
2022-07-29T04:50:35.017Z,4.53
2022-07-29T04:53:01.384Z,4.60
2022-07-29T04:55:27.728Z,5.20
2022-07-29T04:57:54.071Z,3.95
2022-07-29T05:00:20.451Z,9.75
2022-07-29T05:02:47.052Z,3.90
2022-07-29T05:05:13.463Z,3.55
2022-07-29T05:07:41.755Z,6.60
2022-07-29T05:10:09.182Z,6.45
2022-07-29T05:12:35.667Z,4.63
2022-07-29T05:15:02.071Z,2.83
2022-07-29T05:17:28.544Z,7.63
2022-07-29T05:19:54.915Z,4.07
2022-07-29T05:22:21.823Z,6.22
2022-07-29T05:24:48.191Z,5.13
2022-07-29T05:27:14.563Z,4.50
2022-07-29T05:29:43.187Z,3.30
2022-07-29T05:32:09.956Z,10.60
2022-07-29T05:34:36.346Z,6.10
2022-07-29T05:37:02.924Z,3.80
2022-07-29T05:39:49.289Z,7.78
2022-07-29T05:42:15.669Z,4.93
2022-07-29T05:44:42.120Z,6.65
2022-07-29T05:47:08.772Z,6.93
2022-07-29T05:49:35.430Z,5.90
2022-07-29T05:52:01.824Z,7.70
2022-07-29T05:54:28.191Z,4.88
2022-07-29T05:56:54.532Z,4.93
2022-07-29T05:59:20.937Z,5.30
2022-07-29T06:01:47.391Z,7.40
2022-07-29T06:04:14.105Z,6.05
2022-07-29T06:06:40.807Z,8.07
2022-07-29T06:09:12.190Z,7.20
2022-07-29T06:11:39.409Z,7.90
2022-07-29T06:14:05.780Z,6.57
2022-07-29T06:16:32.287Z,4.60
2022-07-29T06:18:58.735Z,4.50
2022-07-29T06:21:25.059Z,4.93
2022-07-29T06:23:51.454Z,10.43
2022-07-29T06:26:17.814Z,4.45
2022-07-29T06:28:44.247Z,8.57
2022-07-29T06:31:10.688Z,9.48
2022-07-29T06:33:37.055Z,7.13
2022-07-29T06:36:06.155Z,4.82
2022-07-29T06:38:40.371Z,5.22
2022-07-29T06:41:09.519Z,4.70
2022-07-29T06:43:45.619Z,11.23
2022-07-29T06:46:18.727Z,7.13
2022-07-29T06:48:46.145Z,6.68
2022-07-29T06:51:12.787Z,5.53
2022-07-29T06:53:39.775Z,9.45
2022-07-29T06:56:25.103Z,7.78
2022-07-29T06:58:51.532Z,6.68
2022-07-29T07:01:17.946Z,6.00
2022-07-29T07:03:44.383Z,6.43
2022-07-29T07:06:14.840Z,3.15
2022-07-29T07:08:41.582Z,5.45
2022-07-29T07:11:08.003Z,7.70
2022-07-29T07:13:34.344Z,4.70
2022-07-29T07:16:04.020Z,5.45
2022-07-29T07:18:30.821Z,6.97
2022-07-29T07:20:58.007Z,4.75
2022-07-29T07:23:24.438Z,8.05
2022-07-29T07:25:50.816Z,5.35
2022-07-29T07:28:17.172Z,3.70
2022-07-29T07:30:43.752Z,5.10
2022-07-29T07:33:10.216Z,7.20
2022-07-29T07:35:36.567Z,4.93
2022-07-29T07:38:02.933Z,2.97
2022-07-29T07:40:29.278Z,4.25
2022-07-29T07:42:55.651Z,3.20
2022-07-29T07:45:21.971Z,6.20
2022-07-29T07:47:48.402Z,5.78
2022-07-29T07:50:18.708Z,3.85
2022-07-29T07:52:54.246Z,2.65
2022-07-29T07:55:20.816Z,5.22
2022-07-29T07:57:47.398Z,3.47
2022-07-29T08:00:15.775Z,4.90
2022-07-29T08:02:42.299Z,5.75
2022-07-29T08:05:12.598Z,5.30
2022-07-29T08:07:39.758Z,7.13
2022-07-29T08:10:06.597Z,6.43
2022-07-29T08:12:33.022Z,3.13
2022-07-29T08:14:59.408Z,5.88
2022-07-29T08:17:25.754Z,2.92
2022-07-29T08:19:52.106Z,3.95
2022-07-29T08:22:18.523Z,6.25
2022-07-29T08:24:44.946Z,3.15
2022-07-29T08:27:33.489Z,3.55
2022-07-29T08:29:58.441Z,6.00
2022-07-29T08:32:43.765Z,3.53
2022-07-29T08:35:11.273Z,5.35
2022-07-29T08:37:37.752Z,2.95
2022-07-29T08:40:04.519Z,5.50
2022-07-29T08:42:31.413Z,4.28
2022-07-29T08:44:58.811Z,4.15
2022-07-29T08:47:26.541Z,2.90
2022-07-29T08:49:52.997Z,2.10
2022-07-29T08:52:20.977Z,6.75
2022-07-29T08:54:48.436Z,6.25
2022-07-29T08:57:15.083Z,5.00
2022-07-29T08:59:43.619Z,5.25
2022-07-29T09:02:22.495Z,4.10
2022-07-29T09:04:49.832Z,2.10
2022-07-29T09:07:17.949Z,2.67
2022-07-29T09:09:44.639Z,4.07
2022-07-29T09:12:11.610Z,2.65
2022-07-29T09:14:39.142Z,4.93
2022-07-29T09:17:06.063Z,7.30
2022-07-29T09:19:37.430Z,10.73
2022-07-29T09:22:07.074Z,5.63
2022-07-29T09:24:43.547Z,4.15
2022-07-29T09:27:22.255Z,6.00
2022-07-29T09:30:06.339Z,6.35
2022-07-29T09:32:34.305Z,2.50
2022-07-29T09:35:18.899Z,4.20
2022-07-29T09:37:45.755Z,8.93
2022-07-29T09:40:17.635Z,6.00
2022-07-29T09:42:45.115Z,6.35
2022-07-29T09:45:12.066Z,7.45
2022-07-29T09:47:48.558Z,6.18
2022-07-29T09:50:15.200Z,4.68
2022-07-29T09:52:50.603Z,3.75
2022-07-29T09:55:19.828Z,4.70
2022-07-29T09:57:47.684Z,3.47
2022-07-29T10:00:18.187Z,3.38
2022-07-29T10:02:47.058Z,6.15
2022-07-29T10:05:23.376Z,4.22
2022-07-29T10:07:57.178Z,5.53
2022-07-29T10:10:24.035Z,3.75
2022-07-29T10:12:56.915Z,4.70
2022-07-29T10:15:25.888Z,5.82
2022-07-29T10:17:53.563Z,9.05
2022-07-29T10:20:21.594Z,4.03
2022-07-29T10:22:53.950Z,5.28
2022-07-29T10:25:21.425Z,3.53
2022-07-29T10:27:48.903Z,5.55
2022-07-29T10:30:16.739Z,8.73
2022-07-29T10:33:04.777Z,5.60
2022-07-29T10:36:14.342Z,8.00
2022-07-29T10:39:03.247Z,3.70
2022-07-29T10:41:53.575Z,4.10
2022-07-29T10:44:23.026Z,9.60
2022-07-29T10:46:51.415Z,4.47
2022-07-29T10:49:20.095Z,3.65
2022-07-29T10:52:10.720Z,5.00
2022-07-29T10:54:37.686Z,6.38
2022-07-29T10:57:21.595Z,8.52
2022-07-29T11:00:01.408Z,3.85
2022-07-29T11:02:42.603Z,8.73
2022-07-29T11:05:14.736Z,4.88
2022-07-29T11:08:19.993Z,3.70
2022-07-29T11:10:51.555Z,5.85
2022-07-29T11:13:47.290Z,5.70
2022-07-29T11:16:16.623Z,4.93
2022-07-29T11:19:11.272Z,3.40
2022-07-29T11:22:00.316Z,4.68
2022-07-29T11:24:30.257Z,8.18
2022-07-29T11:27:10.981Z,5.53
2022-07-29T11:29:48.438Z,10.13
2022-07-29T11:35:36.734Z,5.22
2022-07-29T11:38:23.479Z,5.32
2022-07-29T11:43:51.948Z,4.80
2022-07-29T11:46:47.843Z,6.25
2022-07-29T11:49:14.623Z,9.30
2022-07-29T11:54:57.182Z,5.43
2022-07-29T11:57:22.122Z,8.35
2022-07-29T11:59:48.633Z,8.55
2022-07-29T12:02:37.049Z,7.00
2022-07-29T12:05:01.899Z,5.22
2022-07-29T12:07:01.471Z,4.97
2022-07-29T12:07:38.250Z,6.22
2022-07-29T12:10:07.598Z,5.07
2022-07-29T12:12:38.110Z,3.58
2022-07-29T12:15:15.696Z,6.10
2022-07-29T12:17:42.333Z,4.68
2022-07-29T12:20:08.924Z,6.25
2022-07-29T12:22:40.791Z,8.15
2022-07-29T12:25:32.312Z,4.93
2022-07-29T12:28:01.133Z,6.70
2022-07-29T12:30:48.084Z,6.72
2022-07-29T12:33:17.401Z,9.10
2022-07-29T12:35:58.098Z,7.80
2022-07-29T12:38:30.479Z,6.20
2022-07-29T12:40:57.004Z,6.00
2022-07-29T12:43:25.529Z,6.32
2022-07-29T12:45:54.471Z,4.13
2022-07-29T12:48:41.400Z,6.10
2022-07-29T12:51:09.019Z,7.90
2022-07-29T12:53:36.185Z,5.40
2022-07-29T12:56:15.570Z,5.35
2022-07-29T12:58:51.389Z,4.82
2022-07-29T13:01:19.681Z,5.13
2022-07-29T13:03:57.186Z,5.63
2022-07-29T13:06:32.370Z,5.03
2022-07-29T13:09:06.413Z,9.75
2022-07-29T13:11:45.301Z,4.90
2022-07-29T13:14:35.724Z,6.03
2022-07-29T13:17:10.040Z,3.33
2022-07-29T13:19:45.101Z,5.07
2022-07-29T13:22:16.412Z,7.45
2022-07-29T13:24:48.498Z,5.82
2022-07-29T13:27:18.906Z,3.95
2022-07-29T13:29:45.614Z,7.82
2022-07-29T13:32:12.675Z,6.95
2022-07-29T13:34:38.994Z,6.45
2022-07-29T13:37:05.370Z,6.45
2022-07-29T13:39:31.840Z,6.35
2022-07-29T13:41:58.528Z,10.18
2022-07-29T13:44:26.712Z,6.45
2022-07-29T13:46:53.047Z,3.88
2022-07-29T13:49:19.413Z,5.32
2022-07-29T13:51:45.774Z,10.07
2022-07-29T13:54:12.141Z,5.68
2022-07-29T13:56:38.478Z,4.32
2022-07-29T13:59:04.875Z,2.70
2022-07-29T14:01:31.374Z,3.55
2022-07-29T14:03:57.805Z,4.03
2022-07-29T14:06:24.175Z,6.47
2022-07-29T14:08:50.516Z,5.13
2022-07-29T14:11:16.884Z,4.90
2022-07-29T14:13:43.223Z,5.57
2022-07-29T14:16:09.611Z,5.60
2022-07-29T14:18:35.943Z,3.35
2022-07-29T14:21:02.736Z,5.53
2022-07-29T14:23:29.094Z,6.13
2022-07-29T14:25:55.494Z,4.18
2022-07-29T14:28:22.397Z,11.27
2022-07-29T14:30:48.752Z,2.83
2022-07-29T14:33:15.111Z,4.78
2022-07-29T14:35:41.459Z,3.70
2022-07-29T14:38:07.940Z,6.85
2022-07-29T14:40:34.404Z,11.35
2022-07-29T14:43:00.740Z,8.13
2022-07-29T14:45:27.112Z,6.35
2022-07-29T14:47:57.268Z,10.13
2022-07-29T14:50:31.617Z,6.68
2022-07-29T14:55:24.825Z,7.25
2022-07-29T14:57:51.158Z,10.00
2022-07-29T15:00:18.380Z,8.25
2022-07-29T15:03:02.407Z,9.02
2022-07-29T15:05:30.103Z,9.88
2022-07-29T15:07:56.572Z,7.28
2022-07-29T15:10:24.729Z,9.98
2022-07-29T15:12:51.103Z,4.78
2022-07-29T15:15:17.437Z,16.88
2022-07-29T15:17:43.770Z,11.05
2022-07-29T15:20:10.606Z,10.35
2022-07-29T15:22:36.929Z,8.73
2022-07-29T15:25:03.384Z,7.70
2022-07-29T15:27:29.776Z,10.48
2022-07-29T15:29:56.132Z,11.05
2022-07-29T15:32:22.455Z,10.88
2022-07-29T15:34:48.791Z,9.48
2022-07-29T15:37:15.132Z,13.57
2022-07-29T15:39:41.486Z,7.47
2022-07-29T15:42:07.868Z,10.57
2022-07-29T15:44:34.913Z,15.02
2022-07-29T15:47:01.917Z,10.30
2022-07-29T15:49:28.915Z,10.00
2022-07-29T15:52:13.100Z,9.88
2022-07-29T15:54:40.332Z,8.70
2022-07-29T15:57:07.511Z,14.90
2022-07-29T15:59:34.231Z,13.95
2022-07-29T16:02:01.701Z,7.95
2022-07-29T16:04:28.306Z,13.02
2022-07-29T16:06:55.271Z,8.80
2022-07-29T16:09:21.827Z,12.68
2022-07-29T16:11:48.283Z,11.45
2022-07-29T16:14:14.790Z,9.52
2022-07-29T16:16:41.234Z,8.85
2022-07-29T16:19:08.556Z,10.73
2022-07-29T16:21:35.409Z,9.88
2022-07-29T16:24:02.671Z,14.65
2022-07-29T16:26:29.121Z,8.55
2022-07-29T16:28:55.987Z,10.52
2022-07-29T16:31:23.057Z,14.63
2022-07-29T16:33:54.390Z,11.63
2022-07-29T16:36:22.883Z,6.43
2022-07-29T16:38:49.954Z,10.77
2022-07-29T16:41:16.512Z,9.88
2022-07-29T16:43:42.981Z,7.07
2022-07-29T16:46:14.034Z,10.27
2022-07-29T16:48:45.618Z,9.88
2022-07-29T16:51:14.363Z,15.70
2022-07-29T16:53:41.314Z,14.90
2022-07-29T16:56:08.489Z,15.60
2022-07-29T16:58:41.758Z,17.58
2022-07-29T17:01:10.126Z,9.00
2022-07-29T17:03:36.521Z,9.15
2022-07-29T17:06:02.905Z,9.77
2022-07-29T17:08:29.249Z,9.60
2022-07-29T17:10:55.569Z,10.10
2022-07-29T17:13:21.902Z,7.90
2022-07-29T17:15:48.335Z,9.40
2022-07-29T17:18:14.760Z,10.57
2022-07-29T17:20:42.123Z,6.97
2022-07-29T17:23:08.616Z,6.72
2022-07-29T17:25:35.068Z,6.75
2022-07-29T17:28:01.561Z,10.68
2022-07-29T17:30:28.733Z,10.30
2022-07-29T17:32:55.109Z,7.68
2022-07-29T17:35:21.443Z,11.85
2022-07-29T17:37:47.775Z,10.90
2022-07-29T17:40:14.096Z,8.10
2022-07-29T17:42:40.434Z,10.00
2022-07-29T17:45:07.432Z,11.52
2022-07-29T17:47:33.750Z,10.88
2022-07-29T17:50:00.162Z,7.40
2022-07-29T17:52:26.501Z,10.48
2022-07-29T17:54:52.818Z,10.43
2022-07-29T17:57:19.151Z,6.90
2022-07-29T17:59:45.497Z,13.23
2022-07-29T18:02:11.887Z,11.32
2022-07-29T18:04:38.461Z,9.90
2022-07-29T18:07:04.782Z,10.73
2022-07-29T18:09:31.134Z,11.85
2022-07-29T18:11:57.478Z,9.80
2022-07-29T18:14:23.822Z,15.65
2022-07-29T18:16:50.233Z,11.27
2022-07-29T18:19:16.598Z,9.60
2022-07-29T18:21:51.926Z,10.77
2022-07-29T18:24:21.202Z,9.02
2022-07-29T18:26:47.553Z,15.65
2022-07-29T18:29:13.908Z,7.75
2022-07-29T18:31:40.287Z,7.90
2022-07-29T18:34:06.682Z,7.43
2022-07-29T18:36:33.019Z,8.63
2022-07-29T18:38:59.369Z,9.93
2022-07-29T18:41:25.714Z,9.32
2022-07-29T18:43:52.040Z,7.28
2022-07-29T18:46:18.460Z,6.32
2022-07-29T18:48:44.859Z,8.55
2022-07-29T18:51:11.206Z,10.90
2022-07-29T18:53:37.661Z,10.48
2022-07-29T18:56:04.206Z,10.40
2022-07-29T18:58:30.558Z,10.23
2022-07-29T19:00:56.874Z,10.50
2022-07-29T19:03:23.201Z,6.55
2022-07-29T19:05:49.649Z,9.40
2022-07-29T19:08:15.985Z,9.82
2022-07-29T19:10:42.345Z,9.15
2022-07-29T19:13:08.803Z,8.75
2022-07-29T19:15:36.708Z,8.35
2022-07-29T19:18:03.231Z,8.20
2022-07-29T19:20:29.563Z,7.18
2022-07-29T19:22:55.944Z,10.65
2022-07-29T19:25:22.422Z,9.70
2022-07-29T19:27:48.752Z,12.23
2022-07-29T19:30:15.193Z,13.38
2022-07-29T19:32:41.762Z,8.50
2022-07-29T19:35:08.220Z,8.95
2022-07-29T19:37:34.555Z,9.63
2022-07-29T19:40:00.881Z,13.27
2022-07-29T19:42:27.197Z,9.40
2022-07-29T19:44:53.649Z,13.55
2022-07-29T19:47:19.965Z,13.57
2022-07-29T19:49:46.308Z,14.32
2022-07-29T19:52:12.635Z,9.93
2022-07-29T19:54:38.977Z,13.70
2022-07-29T19:57:05.341Z,11.93
2022-07-29T19:59:31.663Z,10.52
2022-07-29T20:01:58.048Z,10.52
2022-07-29T20:04:24.420Z,15.52
2022-07-29T20:06:50.778Z,9.32
2022-07-29T20:09:20.549Z,11.38
2022-07-29T20:11:47.225Z,13.98
2022-07-29T20:14:13.645Z,8.20
2022-07-29T20:16:39.974Z,12.25
2022-07-29T20:19:06.318Z,8.48
2022-07-29T20:21:32.655Z,9.15
2022-07-29T20:23:59.232Z,12.15
2022-07-29T20:26:25.556Z,10.40
2022-07-29T20:28:51.955Z,13.60
2022-07-29T20:31:18.332Z,10.32
2022-07-29T20:33:45.013Z,13.63
2022-07-29T20:36:11.420Z,9.63
2022-07-29T20:38:37.828Z,11.68
2022-07-29T20:41:04.379Z,10.90
2022-07-29T20:43:30.704Z,9.88
2022-07-29T20:46:03.033Z,9.65
2022-07-29T20:48:29.403Z,11.05
2022-07-29T20:50:55.807Z,7.82
2022-07-29T20:53:22.899Z,11.27
2022-07-29T20:55:49.342Z,11.27
2022-07-29T20:58:15.691Z,10.73
2022-07-29T21:00:42.022Z,15.20
2022-07-29T21:03:08.436Z,12.93
2022-07-29T21:05:36.818Z,9.35
2022-07-29T21:08:03.803Z,11.80
2022-07-29T21:10:30.155Z,11.13
2022-07-29T21:12:56.503Z,12.98
2022-07-29T21:15:22.914Z,12.55
2022-07-29T21:17:49.242Z,9.52
2022-07-29T21:20:17.247Z,9.23
2022-07-29T21:22:44.519Z,16.95
2022-07-29T21:25:11.695Z,12.63
2022-07-29T21:27:38.394Z,13.32
2022-07-29T21:30:06.896Z,11.35
2022-07-29T21:32:33.313Z,13.05
2022-07-29T21:34:59.744Z,13.48
2022-07-29T21:37:26.145Z,13.63
2022-07-29T21:39:52.480Z,16.58
2022-07-29T21:42:18.871Z,15.45
2022-07-29T21:44:45.337Z,12.18
2022-07-29T21:47:11.801Z,12.52
2022-07-29T21:49:38.282Z,14.88
2022-07-29T21:52:05.613Z,12.73
2022-07-29T21:54:34.314Z,11.52
2022-07-29T21:57:00.643Z,14.60
2022-07-29T21:59:27.418Z,17.20
2022-07-29T22:01:53.788Z,13.70
2022-07-29T22:04:20.516Z,13.77
2022-07-29T22:06:46.924Z,15.93
2022-07-29T22:09:13.319Z,17.05
2022-07-29T22:11:39.751Z,19.35
2022-07-29T22:14:06.089Z,17.08
2022-07-29T22:16:32.484Z,17.73
2022-07-29T22:18:58.880Z,18.83
2022-07-29T22:21:25.320Z,19.30
2022-07-29T22:23:51.650Z,15.13
2022-07-29T22:26:18.007Z,17.42
2022-07-29T22:28:44.338Z,21.00
2022-07-29T22:31:10.760Z,18.48
2022-07-29T22:33:37.202Z,17.75
2022-07-29T22:36:03.758Z,18.33
2022-07-29T22:38:30.163Z,16.92
2022-07-29T22:41:00.485Z,12.88
2022-07-29T22:43:27.765Z,12.82
2022-07-29T22:45:54.140Z,13.13
2022-07-29T22:48:20.522Z,12.55
2022-07-29T22:50:46.886Z,13.55
2022-07-29T22:53:13.250Z,14.80
2022-07-29T22:55:39.647Z,12.90
2022-07-29T22:58:06.057Z,11.98
2022-07-29T23:00:32.528Z,13.77
2022-07-29T23:02:58.910Z,14.77
2022-07-29T23:05:25.309Z,12.93
2022-07-29T23:07:51.700Z,15.10
2022-07-29T23:10:18.118Z,13.18
2022-07-29T23:12:44.454Z,12.63
2022-07-29T23:15:10.808Z,13.80
2022-07-29T23:17:37.181Z,13.18
2022-07-29T23:20:08.231Z,13.65
2022-07-29T23:22:36.284Z,15.40
2022-07-29T23:25:03.724Z,14.23
2022-07-29T23:27:30.121Z,15.27
2022-07-29T23:29:56.447Z,12.05
2022-07-29T23:32:22.798Z,12.02
2022-07-29T23:34:49.142Z,13.63
2022-07-29T23:37:15.470Z,16.92
2022-07-29T23:39:41.956Z,13.00
2022-07-29T23:42:09.383Z,15.23
2022-07-29T23:44:35.718Z,13.15
2022-07-29T23:47:02.600Z,13.48
2022-07-29T23:49:29.116Z,15.20
2022-07-29T23:51:55.491Z,11.43
2022-07-29T23:54:21.822Z,15.60
2022-07-29T23:56:48.166Z,15.43
2022-07-29T23:59:14.490Z,13.30
